Time;durP1;ratioP1;P1;durP2;ratioP2;P2;SDS_P1;SDS_P2;PMS_P1;PMS_P2;Temp;Humidity;BMP_temperature;BMP_pressure;BME280_temperature;BME280_humidity;BME280_pressure;Samples;Min_cycle;Max_cycle;Signal;HPM_P1;HPM_P2
2022/05/08 00:00:35;;;;;;;9.95;3.80;;;;;;;14.16;43.60;99931.70;1786188;80;21020;-43
2022/05/08 00:03:02;;;;;;;7.28;3.52;;;;;;;14.16;43.51;99934.42;1786224;80;21223;-43
2022/05/08 00:05:29;;;;;;;5.60;3.30;;;;;;;14.17;43.54;99929.19;1785959;80;21024;-43
2022/05/08 00:07:57;;;;;;;13.58;3.45;;;;;;;14.18;43.51;99932.13;1786144;80;20940;-43
2022/05/08 00:10:23;;;;;;;7.67;3.90;;;;;;;14.20;43.53;99927.65;1786211;80;21227;-43
2022/05/08 00:12:50;;;;;;;5.97;3.70;;;;;;;14.23;43.44;99927.69;1786003;80;21029;-43
2022/05/08 00:15:16;;;;;;;7.00;3.50;;;;;;;14.25;43.45;99926.75;1786059;80;21032;-43
2022/05/08 00:17:44;;;;;;;10.32;3.60;;;;;;;14.28;43.42;99928.73;1786218;80;21518;-43
2022/05/08 00:20:12;;;;;;;5.47;3.50;;;;;;;14.28;43.40;99925.24;1786191;80;21570;-43
2022/05/08 00:22:44;;;;;;;5.87;3.10;;;;;;;14.27;43.50;99923.09;1786131;80;21180;-43
2022/05/08 00:25:10;;;;;;;8.28;3.58;;;;;;;14.25;43.56;99925.39;1786673;80;21254;-43
2022/05/08 00:27:37;;;;;;;5.45;3.17;;;;;;;13.94;43.60;99875.33;1786358;80;21529;-43
2022/05/08 00:30:06;;;;;;;6.95;3.35;;;;;;;14.26;43.69;99926.97;1786254;80;21557;-43
2022/05/08 00:32:32;;;;;;;12.07;3.40;;;;;;;14.28;43.71;99926.00;1786304;80;21075;-43
2022/05/08 00:34:59;;;;;;;6.40;3.35;;;;;;;14.28;43.75;99921.91;1786204;80;21236;-43
2022/05/08 00:37:26;;;;;;;5.97;3.12;;;;;;;14.28;43.91;99922.52;1786119;80;20939;-43
2022/05/08 00:39:52;;;;;;;6.83;3.47;;;;;;;14.28;43.99;99921.16;1786264;80;21034;-43
2022/05/08 00:42:19;;;;;;;6.95;3.00;;;;;;;14.28;43.94;99925.24;1786145;80;20956;-43
2022/05/08 00:44:46;;;;;;;7.83;3.50;;;;;;;14.25;43.98;99924.02;1786251;80;21078;-43
2022/05/08 00:47:12;;;;;;;4.90;2.75;;;;;;;14.24;44.02;99921.09;1786296;80;21200;-43
2022/05/08 00:49:39;;;;;;;5.17;3.17;;;;;;;14.24;44.23;99922.45;1786330;80;20960;-43
2022/05/08 00:52:08;;;;;;;8.93;3.45;;;;;;;14.22;44.23;99913.87;1786041;80;20932;-43
2022/05/08 00:54:35;;;;;;;8.13;3.58;;;;;;;14.22;44.17;99913.08;1728570;80;21574;-43
2022/05/08 00:57:06;;;;;;;12.28;3.70;;;;;;;14.21;44.24;99910.14;1786096;80;21049;-43
2022/05/08 00:59:33;;;;;;;8.03;3.33;;;;;;;14.18;44.42;99912.25;1797528;78;21101;-43
2022/05/08 01:02:00;;;;;;;6.22;3.30;;;;;;;14.15;44.42;99917.85;1780287;79;21057;-43
2022/05/08 01:04:27;;;;;;;6.15;3.10;;;;;;;14.10;44.54;99912.72;1804472;79;20959;-43
2022/05/08 01:06:53;;;;;;;11.20;3.35;;;;;;;14.06;44.56;99909.16;1804778;79;21679;-43
2022/05/08 01:09:20;;;;;;;8.13;3.35;;;;;;;14.03;44.66;99908.55;1804809;79;21045;-43
2022/05/08 01:11:47;;;;;;;6.45;3.40;;;;;;;14.01;44.71;99904.61;1804743;79;21284;-43
2022/05/08 01:14:14;;;;;;;6.95;3.55;;;;;;;13.97;44.80;99904.56;1804782;79;20898;-43
2022/05/08 01:16:40;;;;;;;7.30;3.52;;;;;;;13.93;44.85;99907.82;1804791;79;20982;-43
2022/05/08 01:19:08;;;;;;;8.70;3.15;;;;;;;13.90;44.91;99901.73;1804889;79;20962;-43
2022/05/08 01:21:41;;;;;;;8.55;3.55;;;;;;;13.86;45.04;99903.63;1804842;79;20967;-43
2022/05/08 01:24:09;;;;;;;8.50;3.40;;;;;;;13.85;45.11;99899.31;1805304;79;21204;-43
2022/05/08 01:26:36;;;;;;;5.67;3.40;;;;;;;13.80;45.19;99897.70;1805000;79;20974;-43
2022/05/08 01:29:03;;;;;;;5.92;3.33;;;;;;;13.77;45.23;99900.38;1805101;79;21472;-43
2022/05/08 01:31:33;;;;;;;6.67;3.08;;;;;;;13.75;45.23;99902.67;1805052;79;20971;-43
2022/05/08 01:34:00;;;;;;;7.03;3.25;;;;;;;13.72;45.34;99896.60;1779158;79;20993;-43
2022/05/08 01:36:27;;;;;;;7.50;3.72;;;;;;;13.67;45.52;99893.62;1804909;79;21235;-43
2022/05/08 01:38:56;;;;;;;6.53;3.55;;;;;;;13.62;45.66;99889.84;1805083;79;20959;-43
2022/05/08 01:41:23;;;;;;;6.62;3.75;;;;;;;13.56;45.77;99895.39;1804722;79;20882;-43
2022/05/08 01:43:51;;;;;;;7.67;3.70;;;;;;;13.53;45.79;99896.70;1804772;79;21002;-43
2022/05/08 01:46:17;;;;;;;7.15;3.20;;;;;;;13.47;45.96;99899.73;1804520;79;21457;-43
2022/05/08 01:48:44;;;;;;;6.33;3.50;;;;;;;13.42;46.11;99896.53;1804735;79;23173;-43
2022/05/08 01:51:12;;;;;;;12.15;3.52;;;;;;;13.37;46.23;99900.92;1804628;79;20973;-43
2022/05/08 01:53:40;;;;;;;12.63;3.70;;;;;;;13.31;46.34;99898.31;1804589;79;20982;-43
2022/05/08 01:56:08;;;;;;;6.37;3.47;;;;;;;13.26;46.61;99904.86;1804626;79;21608;-43
2022/05/08 01:58:36;;;;;;;7.17;3.62;;;;;;;13.18;46.88;99903.14;1800083;79;21018;-43
2022/05/08 02:01:04;;;;;;;8.85;3.77;;;;;;;13.13;46.99;99901.30;1804901;79;21138;-43
2022/05/08 02:03:31;;;;;;;8.05;3.67;;;;;;;13.08;47.18;99900.42;1804888;79;20955;-43
2022/05/08 02:05:58;;;;;;;6.05;3.33;;;;;;;13.08;47.33;99900.99;1805004;79;21776;-43
2022/05/08 02:08:24;;;;;;;11.10;3.62;;;;;;;13.05;47.40;99903.09;1804748;79;21503;-43
2022/05/08 02:10:56;;;;;;;6.72;3.80;;;;;;;13.00;47.35;99898.73;1804779;79;20946;-43
2022/05/08 02:13:22;;;;;;;7.45;3.42;;;;;;;12.95;47.29;99901.75;1804809;79;21112;-43
2022/05/08 02:15:49;;;;;;;7.90;4.00;;;;;;;12.91;47.32;99903.63;1804786;79;21005;-43
2022/05/08 02:18:16;;;;;;;5.65;3.25;;;;;;;12.86;47.38;99898.48;1804677;79;21011;-43
2022/05/08 02:20:44;;;;;;;11.15;4.22;;;;;;;12.81;47.57;99900.70;1804593;79;20934;-43
2022/05/08 02:23:11;;;;;;;7.70;3.80;;;;;;;12.75;47.69;99897.48;1804832;79;20978;-43
2022/05/08 02:25:37;;;;;;;12.85;4.12;;;;;;;12.71;47.87;99904.02;1804594;79;21148;-43
2022/05/08 02:28:04;;;;;;;5.62;3.45;;;;;;;12.67;47.97;99901.80;1805005;79;20922;-43
2022/05/08 02:30:31;;;;;;;7.95;3.45;;;;;;;12.63;48.13;99901.14;1805040;79;21432;-43
2022/05/08 02:33:00;;;;;;;10.68;4.15;;;;;;;12.58;48.17;99902.03;1804906;79;20930;-43
2022/05/08 02:35:27;;;;;;;7.67;3.72;;;;;;;12.58;48.19;99907.48;1804872;79;21060;-43
2022/05/08 02:37:54;;;;;;;8.00;3.62;;;;;;;12.56;48.29;99906.47;1804950;79;23101;-43
2022/05/08 02:40:26;;;;;;;11.00;4.05;;;;;;;12.53;48.50;99903.11;1804740;79;21468;-43
2022/05/08 02:42:51;;;;;;;6.42;3.42;;;;;;;12.49;48.50;99907.67;1804876;79;21049;-43
2022/05/08 02:45:18;;;;;;;7.87;3.55;;;;;;;12.47;48.66;99910.55;1804880;79;21524;-43
2022/05/08 02:47:46;;;;;;;5.92;3.62;;;;;;;12.42;48.75;99911.63;1804997;79;21022;-43
2022/05/08 02:50:13;;;;;;;9.35;3.75;;;;;;;12.40;48.87;99910.39;1804478;79;21307;-43
2022/05/08 02:52:40;;;;;;;9.08;4.15;;;;;;;12.39;48.89;99912.92;1804774;79;20907;-43
2022/05/08 03:00:42;;;;;;;9.70;3.87;;;;;;;12.33;49.15;99908.33;1789567;79;21541;-43
2022/05/08 03:03:09;;;;;;;8.13;3.90;;;;;;;12.32;49.26;99905.39;1786201;80;21240;-43
2022/05/08 03:05:37;;;;;;;6.92;3.98;;;;;;;12.31;49.43;99909.25;1786103;80;21079;-43
2022/05/08 03:08:05;;;;;;;9.55;4.15;;;;;;;12.29;49.51;99910.20;1786306;80;21534;-43
2022/05/08 03:11:25;;;;;;;9.80;3.72;;;;;;;12.31;49.58;99913.33;1786079;80;21585;-43
2022/05/08 03:13:03;;;;;;;8.75;3.98;;;;;;;12.32;49.66;99920.34;1785485;79;21071;-43
2022/05/08 03:15:31;;;;;;;8.13;3.95;;;;;;;12.32;49.65;99917.63;1786338;80;21232;-43
2022/05/08 03:18:00;;;;;;;7.28;3.90;;;;;;;12.34;49.69;99923.51;1786357;80;21498;-43
2022/05/08 03:20:27;;;;;;;10.08;3.60;;;;;;;12.36;49.77;99928.00;1786108;80;21537;-43
2022/05/08 03:22:53;;;;;;;11.60;3.83;;;;;;;12.37;49.84;99926.08;1786096;80;21060;-43
2022/05/08 03:25:20;;;;;;;7.20;3.60;;;;;;;12.39;49.85;99928.63;1786185;80;21022;-43
2022/05/08 03:27:48;;;;;;;11.45;4.40;;;;;;;12.42;49.79;99933.37;1786307;80;21115;-43
2022/05/08 03:30:14;;;;;;;6.83;3.50;;;;;;;12.46;49.91;99934.80;1786007;80;21613;-43
2022/05/08 03:32:41;;;;;;;6.28;3.60;;;;;;;12.51;49.92;99942.67;1786197;80;20999;-43
2022/05/08 03:35:09;;;;;;;5.75;3.40;;;;;;;12.56;49.99;99941.03;1786145;80;20991;-43
2022/05/08 03:37:35;;;;;;;7.40;4.12;;;;;;;12.58;50.01;99942.27;1786509;80;21060;-43
2022/05/08 03:40:04;;;;;;;6.90;4.15;;;;;;;12.61;49.94;99940.17;1786327;80;21119;-43
2022/05/08 03:42:31;;;;;;;8.18;3.65;;;;;;;12.65;49.96;99951.12;1786648;80;20995;-43
2022/05/08 03:44:57;;;;;;;11.88;3.75;;;;;;;12.68;50.05;99937.39;1786348;80;20997;-43
2022/05/08 03:47:24;;;;;;;5.58;3.70;;;;;;;12.71;50.08;99945.61;1786326;80;21537;-43
2022/05/08 03:49:51;;;;;;;7.25;3.95;;;;;;;12.75;50.12;99943.74;1786407;80;21047;-43
2022/05/08 03:52:18;;;;;;;7.83;4.45;;;;;;;12.77;49.99;99939.31;1786219;80;21968;-43
2022/05/08 03:54:45;;;;;;;9.10;3.58;;;;;;;12.80;50.00;99944.81;1786312;80;21510;-43
2022/05/08 03:57:11;;;;;;;7.83;3.65;;;;;;;12.82;50.09;99941.17;1786182;80;20983;-43
2022/05/08 03:59:39;;;;;;;6.65;3.70;;;;;;;12.85;50.07;99936.93;1786208;78;21013;-43
2022/05/08 04:02:06;;;;;;;10.55;4.05;;;;;;;12.88;50.14;99945.15;1786412;80;21782;-43
2022/05/08 04:04:32;;;;;;;9.43;4.40;;;;;;;12.91;50.18;99945.81;1786117;80;21057;-43
2022/05/08 04:06:59;;;;;;;10.50;3.83;;;;;;;12.95;50.23;99948.59;1786109;80;20999;-43
2022/05/08 04:09:27;;;;;;;7.00;4.17;;;;;;;13.02;50.28;99950.09;1786228;80;20972;-43
2022/05/08 04:11:54;;;;;;;6.85;3.50;;;;;;;13.09;50.27;99952.93;1786483;80;21518;-43
2022/05/08 04:14:21;;;;;;;12.50;3.90;;;;;;;13.18;50.14;99953.52;1786207;80;21510;-43
2022/05/08 04:16:49;;;;;;;13.05;4.30;;;;;;;13.29;50.01;99956.42;1786047;80;23247;-43
2022/05/08 04:19:16;;;;;;;6.75;3.60;;;;;;;13.38;49.83;99954.25;1786122;80;20977;-43
2022/05/08 04:21:43;;;;;;;8.08;4.30;;;;;;;13.47;49.46;99956.14;1786268;80;20975;-43
2022/05/08 04:24:18;;;;;;;5.78;4.00;;;;;;;13.55;49.26;99957.06;1786381;80;21055;-43
2022/05/08 04:26:46;;;;;;;7.03;3.98;;;;;;;13.58;48.94;99954.39;1786325;80;21099;-43
2022/05/08 04:29:13;;;;;;;8.43;3.80;;;;;;;13.62;49.11;99957.95;1786346;80;21196;-43
2022/05/08 04:31:40;;;;;;;9.28;4.30;;;;;;;13.65;48.97;99952.37;1786525;80;21034;-43
2022/05/08 04:34:07;;;;;;;11.73;4.58;;;;;;;13.66;49.19;99956.64;1786479;80;21040;-43
2022/05/08 04:36:35;;;;;;;11.12;4.22;;;;;;;13.68;49.18;99959.80;1786561;79;21494;-43
2022/05/08 04:39:04;;;;;;;10.03;4.03;;;;;;;13.70;49.31;99965.69;1786451;80;21044;-43
2022/05/08 04:41:30;;;;;;;10.15;4.15;;;;;;;13.72;49.29;99966.09;1786442;80;21212;-43
2022/05/08 04:44:00;;;;;;;12.53;4.28;;;;;;;13.72;49.48;99960.64;1786495;80;21019;-43
2022/05/08 04:46:28;;;;;;;9.78;4.25;;;;;;;13.74;49.56;99965.16;1786262;79;20992;-43
2022/05/08 04:48:56;;;;;;;6.92;4.37;;;;;;;13.76;49.65;99965.56;1786696;80;21047;-43
2022/05/08 04:51:25;;;;;;;10.72;4.33;;;;;;;13.81;49.73;99967.98;1786506;80;21461;-43
2022/05/08 04:53:52;;;;;;;10.23;4.85;;;;;;;13.85;49.54;99970.17;1786321;80;23138;-42
2022/05/08 04:56:19;;;;;;;9.95;4.75;;;;;;;13.90;49.39;99963.05;1781361;80;20968;-43
2022/05/08 04:58:45;;;;;;;9.28;4.75;;;;;;;13.96;49.43;99965.69;1786254;80;20974;-43
2022/05/08 05:01:13;;;;;;;7.53;4.92;;;;;;;14.03;49.54;99962.28;1786157;78;21040;-43
2022/05/08 05:03:41;;;;;;;9.10;4.90;;;;;;;14.14;49.46;99965.36;1786369;80;21103;-43
2022/05/08 05:06:08;;;;;;;8.65;4.30;;;;;;;14.25;48.82;99958.12;1786424;80;21181;-43
2022/05/08 05:08:35;;;;;;;9.63;4.60;;;;;;;14.39;48.50;99971.76;1786369;80;21004;-43
2022/05/08 05:11:05;;;;;;;10.08;4.45;;;;;;;14.52;47.91;99969.81;1786225;80;21289;-43
2022/05/08 05:13:31;;;;;;;11.65;4.78;;;;;;;14.64;47.53;99978.33;1730763;80;20984;-43
2022/05/08 05:15:58;;;;;;;9.28;4.85;;;;;;;14.73;47.30;99974.73;1786545;80;21040;-43
2022/05/08 05:18:27;;;;;;;9.65;4.55;;;;;;;14.80;47.33;99974.82;1786330;80;21109;-43
2022/05/08 05:20:53;;;;;;;8.83;4.78;;;;;;;14.86;46.92;99974.70;1786392;80;20944;-43
2022/05/08 05:23:20;;;;;;;9.30;4.60;;;;;;;14.91;47.21;99976.31;1786159;80;21031;-43
2022/05/08 05:25:49;;;;;;;13.98;4.87;;;;;;;14.97;47.35;99978.89;1786158;80;21062;-43
2022/05/08 05:28:17;;;;;;;9.40;4.70;;;;;;;15.02;47.45;99975.25;1786341;80;21039;-43
2022/05/08 05:30:44;;;;;;;9.20;4.62;;;;;;;15.08;47.01;99972.98;1786186;80;21129;-43
2022/05/08 05:33:15;;;;;;;13.68;4.58;;;;;;;15.13;47.03;99978.11;1786404;80;21494;-43
2022/05/08 05:35:39;;;;;;;10.70;4.83;;;;;;;15.18;47.06;99975.83;1786194;80;20976;-43
2022/05/08 05:38:08;;;;;;;9.53;5.37;;;;;;;15.27;46.73;99971.41;1786292;80;20948;-43
2022/05/08 05:40:35;;;;;;;10.58;5.10;;;;;;;15.35;46.36;99973.62;1786084;80;20977;-43
2022/05/08 05:43:01;;;;;;;10.58;5.00;;;;;;;15.43;46.50;99978.01;1786241;80;23211;-43
2022/05/08 05:45:28;;;;;;;10.32;4.90;;;;;;;15.52;45.95;99978.51;1786040;80;21012;-43
2022/05/08 05:47:59;;;;;;;12.13;4.85;;;;;;;15.59;45.47;99989.48;1786370;80;21048;-43
2022/05/08 05:50:24;;;;;;;10.98;5.85;;;;;;;15.65;45.56;99985.25;1786369;79;21020;-43
2022/05/08 05:52:52;;;;;;;10.43;5.37;;;;;;;15.71;45.69;99986.48;1786706;80;21024;-43
2022/05/08 05:55:19;;;;;;;10.93;5.45;;;;;;;15.78;45.34;99987.88;1760688;79;21507;-43
2022/05/08 05:57:46;;;;;;;8.73;5.22;;;;;;;15.85;44.96;99985.22;1755316;81;20936;-43
2022/05/08 06:00:17;;;;;;;8.88;5.42;;;;;;;15.92;44.95;99991.34;1758918;79;21045;-43
2022/05/08 06:02:46;;;;;;;11.93;5.50;;;;;;;15.96;44.86;99990.77;1773029;81;20988;-43
2022/05/08 06:05:14;;;;;;;14.68;5.70;;;;;;;16.01;44.66;99991.20;1773087;81;21005;-43
2022/05/08 06:07:44;;;;;;;12.23;5.40;;;;;;;16.06;44.83;99990.06;1772978;81;21230;-43
2022/05/08 06:10:12;;;;;;;11.43;5.62;;;;;;;16.11;45.39;99991.66;1773091;81;20950;-43
2022/05/08 06:12:41;;;;;;;13.55;5.92;;;;;;;16.15;44.85;99985.04;1772986;81;20906;-43
2022/05/08 06:15:09;;;;;;;14.43;5.62;;;;;;;16.19;45.17;99984.47;1772918;81;21566;-43
2022/05/08 06:17:36;;;;;;;13.72;5.85;;;;;;;16.26;44.90;99985.11;1773037;81;21535;-43
2022/05/08 06:20:05;;;;;;;9.53;5.60;;;;;;;16.32;44.51;99980.83;1773060;81;21144;-43
2022/05/08 06:22:33;;;;;;;8.13;5.78;;;;;;;16.38;44.14;99980.67;1772957;80;21004;-43
2022/05/08 06:25:00;;;;;;;9.03;5.30;;;;;;;16.44;44.62;99983.25;1773149;80;20997;-43
2022/05/08 06:27:26;;;;;;;12.65;4.85;;;;;;;16.52;44.16;99980.73;1773102;80;20962;-43
2022/05/08 06:29:53;;;;;;;8.55;5.50;;;;;;;16.57;43.84;99977.63;1773292;81;21064;-43
2022/05/08 06:32:21;;;;;;;7.45;5.03;;;;;;;16.61;43.25;99975.72;1773231;81;21046;-43
2022/05/08 06:34:49;;;;;;;12.70;5.80;;;;;;;16.66;43.71;99978.09;1773161;81;20956;-43
2022/05/08 06:37:16;;;;;;;9.83;5.50;;;;;;;16.71;42.96;99978.30;1773058;81;21605;-43
2022/05/08 06:39:43;;;;;;;11.05;5.65;;;;;;;16.76;43.02;99977.35;1772883;81;21013;-43
2022/05/08 06:42:10;;;;;;;11.38;5.55;;;;;;;16.82;42.71;99976.40;1772868;81;21024;-43
2022/05/08 06:44:39;;;;;;;10.68;4.85;;;;;;;16.87;42.59;99982.29;1771626;80;21986;-43
2022/05/08 06:47:06;;;;;;;11.40;5.40;;;;;;;16.94;42.63;99974.08;1772942;81;20953;-44
2022/05/08 06:49:34;;;;;;;8.95;5.55;;;;;;;17.06;42.26;99972.16;1773044;81;20906;-43
2022/05/08 06:52:01;;;;;;;10.75;5.40;;;;;;;17.25;42.01;99971.80;1773112;81;21491;-43
2022/05/08 06:54:28;;;;;;;8.23;5.42;;;;;;;17.47;41.36;99972.05;1772911;81;21005;-43
2022/05/08 06:56:56;;;;;;;10.38;5.45;;;;;;;17.70;40.64;99975.21;1772953;81;23136;-43
2022/05/08 07:02:09;;;;;;;12.73;5.92;;;;;;;18.01;39.59;99974.22;1773001;81;21049;-43
2022/05/08 07:04:35;;;;;;;14.30;5.50;;;;;;;18.06;40.07;99976.53;1773240;81;21463;-43
2022/05/08 07:07:03;;;;;;;14.50;6.00;;;;;;;18.10;39.69;99974.59;1773076;81;20965;-43
2022/05/08 07:09:30;;;;;;;12.45;5.90;;;;;;;18.10;39.93;99986.94;1773045;80;21770;-43
2022/05/08 07:11:57;;;;;;;12.43;5.97;;;;;;;18.11;39.67;99981.03;1773052;81;20850;-43
2022/05/08 07:14:23;;;;;;;9.73;5.33;;;;;;;18.09;39.56;99979.29;1772830;80;20933;-43
2022/05/08 07:16:51;;;;;;;11.25;6.20;;;;;;;18.09;39.87;99985.36;1772896;81;21000;-43
2022/05/08 07:19:20;;;;;;;13.53;6.05;;;;;;;18.15;39.94;99981.05;1772673;80;21021;-43
2022/05/08 07:21:46;;;;;;;13.15;5.92;;;;;;;18.31;39.76;99988.25;1772896;81;21249;-43
2022/05/08 07:24:13;;;;;;;11.97;5.95;;;;;;;18.47;40.33;99983.70;1772827;81;20988;-43
2022/05/08 07:26:41;;;;;;;10.80;5.25;;;;;;;18.61;39.42;99987.21;1772828;81;21527;-43
2022/05/08 07:29:08;;;;;;;9.40;4.95;;;;;;;18.76;39.32;99977.54;1772936;81;21037;-43
2022/05/08 07:31:38;;;;;;;9.33;5.65;;;;;;;18.89;38.73;99988.27;1772892;81;21025;-44
2022/05/08 07:36:49;;;;;;;11.33;5.75;;;;;;;19.01;37.58;99983.11;1772763;81;21495;-43
2022/05/08 07:39:16;;;;;;;9.05;5.08;;;;;;;19.10;37.37;99980.70;1772847;81;20922;-43
2022/05/08 07:41:43;;;;;;;9.80;5.62;;;;;;;19.27;37.49;99987.26;1772972;80;20937;-44
2022/05/08 07:44:10;;;;;;;11.78;5.78;;;;;;;19.53;37.17;99980.44;1773261;81;20993;-44
2022/05/08 07:46:36;;;;;;;11.43;6.10;;;;;;;19.79;37.33;99979.06;1773107;81;21115;-44
2022/05/08 07:49:03;;;;;;;10.32;6.08;;;;;;;20.05;37.06;99978.41;1773176;81;21529;-44
2022/05/08 07:51:30;;;;;;;13.93;6.17;;;;;;;20.28;36.00;99975.05;1772984;81;20974;-44
2022/05/08 07:53:58;;;;;;;10.43;5.47;;;;;;;20.45;36.11;99976.84;1773083;81;21009;-43
2022/05/08 07:56:25;;;;;;;9.60;5.70;;;;;;;20.57;35.27;99975.54;1772918;81;21036;-44
2022/05/08 07:58:51;;;;;;;11.48;5.55;;;;;;;20.63;34.97;99980.16;1773184;81;21083;-44
2022/05/08 08:01:19;;;;;;;10.00;5.90;;;;;;;20.70;34.16;99982.06;1765210;81;21523;-43
2022/05/08 08:03:47;;;;;;;9.55;5.35;;;;;;;20.80;34.41;99979.77;1754851;81;20964;-44
2022/05/08 08:06:14;;;;;;;10.60;5.72;;;;;;;20.92;34.40;99977.05;1750755;81;21067;-43
2022/05/08 08:08:41;;;;;;;12.78;6.15;;;;;;;21.06;33.76;99979.02;1755101;81;21044;-43
2022/05/08 08:11:10;;;;;;;12.58;6.25;;;;;;;21.23;33.56;99975.27;1755194;81;21221;-44
2022/05/08 08:16:10;;;;;;;10.48;5.37;;;;;;;21.44;33.33;99974.17;1779263;79;22657;-43
2022/05/08 08:18:38;;;;;;;8.55;5.70;;;;;;;21.42;33.07;99979.91;1738906;82;21327;-43
2022/05/08 08:21:05;;;;;;;9.73;5.25;;;;;;;21.52;32.19;99977.59;1739142;82;21114;-43
2022/05/08 08:23:32;;;;;;;9.18;5.60;;;;;;;21.61;32.42;99971.72;1738991;82;20982;-43
2022/05/08 08:25:59;;;;;;;9.93;5.12;;;;;;;21.72;32.45;99974.31;1739039;82;21528;-43
2022/05/08 08:28:25;;;;;;;10.20;5.65;;;;;;;21.87;31.94;99970.11;1738949;82;21508;-43
2022/05/08 08:30:52;;;;;;;11.85;5.62;;;;;;;22.04;30.98;99979.30;1739067;82;21532;-43
2022/05/08 08:33:19;;;;;;;9.90;4.45;;;;;;;22.14;30.75;99965.90;1739086;82;21832;-43
2022/05/08 08:35:46;;;;;;;10.00;5.58;;;;;;;22.22;30.42;99973.47;1739141;82;20939;-43
2022/05/08 08:38:14;;;;;;;12.07;5.78;;;;;;;22.33;29.98;99969.87;1739389;82;21001;-43
2022/05/08 08:40:42;;;;;;;8.38;5.15;;;;;;;22.40;29.89;99965.61;1739348;82;21105;-43
2022/05/08 08:43:11;;;;;;;7.92;5.75;;;;;;;22.44;29.50;99963.55;1739556;82;21005;-43
2022/05/08 08:48:28;;;;;;;7.83;5.10;;;;;;;22.45;29.82;99967.88;1739338;82;21634;-43
2022/05/08 08:50:57;;;;;;;12.00;5.17;;;;;;;22.54;30.69;99972.23;1738956;82;21595;-43
2022/05/08 08:53:25;;;;;;;7.90;5.10;;;;;;;22.71;29.64;99965.58;1739280;82;20974;-43
2022/05/08 08:55:52;;;;;;;7.55;4.80;;;;;;;22.84;29.28;99967.89;1739059;82;21101;-43
2022/05/08 08:58:19;;;;;;;9.10;4.92;;;;;;;22.99;29.31;99964.81;1739177;82;21227;-43
2022/05/08 09:00:49;;;;;;;11.35;4.50;;;;;;;23.14;28.83;99952.98;1738921;82;20991;-43
2022/05/08 09:03:29;;;;;;;9.40;4.78;;;;;;;23.24;28.78;99961.64;1739661;82;21014;-43
2022/05/08 09:06:02;;;;;;;9.45;5.28;;;;;;;23.28;29.20;99963.75;1727072;82;21092;-43
2022/05/08 09:08:30;;;;;;;12.40;5.33;;;;;;;23.29;28.82;99962.52;1726949;82;21009;-44
2022/05/08 09:10:58;;;;;;;8.33;5.30;;;;;;;23.29;29.24;99954.22;1727293;82;21218;-43
2022/05/08 09:13:27;;;;;;;7.62;4.70;;;;;;;23.25;28.62;99945.23;1726999;83;21307;-43
2022/05/08 09:16:04;;;;;;;8.08;4.95;;;;;;;23.16;29.45;99947.81;1727148;82;21004;-43
2022/05/08 09:18:48;;;;;;;8.23;5.28;;;;;;;23.07;29.41;99953.16;1727561;82;21047;-43
2022/05/08 09:24:11;;;;;;;9.05;5.55;;;;;;;22.90;29.47;99946.80;1727395;83;21538;-43
2022/05/08 09:26:40;;;;;;;10.23;5.35;;;;;;;22.76;29.95;99943.57;1727066;83;21507;-43
2022/05/08 09:29:07;;;;;;;7.87;5.17;;;;;;;22.60;29.91;99948.43;1727059;83;21036;-43
2022/05/08 09:31:42;;;;;;;10.03;5.28;;;;;;;22.57;30.41;99953.41;1726913;82;21570;-43
2022/05/08 09:34:08;;;;;;;10.45;5.15;;;;;;;22.67;30.40;99942.74;1727188;82;21570;-43
2022/05/08 09:36:37;;;;;;;10.82;5.37;;;;;;;22.82;30.15;99948.17;1726987;82;21927;-43
2022/05/08 09:39:05;;;;;;;12.40;5.12;;;;;;;22.93;30.65;99947.34;1726913;83;21008;-43
2022/05/08 09:41:38;;;;;;;6.42;4.97;;;;;;;23.06;30.60;99948.05;1726891;82;20988;-43
2022/05/08 09:44:16;;;;;;;13.58;5.17;;;;;;;23.18;30.60;99940.48;1710880;83;21001;-43
2022/05/08 09:46:48;;;;;;;11.40;4.70;;;;;;;23.25;29.75;99938.91;1726994;83;21047;-43
2022/05/08 09:49:20;;;;;;;9.95;4.40;;;;;;;23.34;30.25;99947.39;1727208;82;21089;-43
2022/05/08 09:51:48;;;;;;;8.70;5.42;;;;;;;23.44;29.33;99938.05;1726771;83;20905;-43
2022/05/08 09:54:17;;;;;;;11.38;5.08;;;;;;;23.46;29.48;99941.21;1726878;82;21515;-43
2022/05/08 09:56:44;;;;;;;8.95;4.83;;;;;;;23.31;29.25;99937.20;1726832;83;21638;-43
2022/05/08 09:59:11;;;;;;;11.53;5.62;;;;;;;23.02;29.94;99937.67;1727025;82;21017;-43
2022/05/08 10:01:39;;;;;;;12.53;5.03;;;;;;;22.73;30.34;99942.45;1726721;83;21116;-43
2022/05/08 10:04:06;;;;;;;9.53;5.30;;;;;;;22.49;30.73;99938.19;1726766;83;20992;-43
2022/05/08 10:06:37;;;;;;;8.03;5.60;;;;;;;22.45;31.05;99939.66;1726845;82;21487;-43
2022/05/08 10:14:36;;;;;;;9.78;5.10;;;;;;;23.16;29.51;99916.60;1726472;82;22031;-43
2022/05/08 10:17:06;;;;;;;8.85;4.95;;;;;;;23.42;29.29;99926.66;1726482;82;21005;-43
2022/05/08 10:19:45;;;;;;;13.62;5.47;;;;;;;23.56;28.90;99918.03;1739549;81;20967;-43
2022/05/08 10:22:12;;;;;;;7.85;4.75;;;;;;;23.54;28.80;99923.81;1754864;81;21015;-43
2022/05/08 10:24:53;;;;;;;10.82;4.62;;;;;;;23.35;29.26;99920.68;1755154;81;21066;-44
2022/05/08 10:27:28;;;;;;;12.13;5.33;;;;;;;23.28;29.75;99921.47;1755452;81;21909;-43
2022/05/08 10:30:02;;;;;;;9.65;4.58;;;;;;;23.38;30.56;99924.59;1755449;81;20990;-43
2022/05/08 10:32:35;;;;;;;7.05;4.37;;;;;;;23.58;30.20;99908.67;1755361;81;21548;-44
2022/05/08 10:35:18;;;;;;;8.73;4.92;;;;;;;23.78;30.26;99906.56;1755155;81;21026;-43
2022/05/08 10:38:01;;;;;;;11.28;5.37;;;;;;;24.02;28.75;99904.34;1755529;81;21057;-43
2022/05/08 10:40:31;;;;;;;10.20;4.50;;;;;;;24.19;28.77;99902.34;1755310;81;21553;-43
2022/05/08 10:43:15;;;;;;;8.93;4.87;;;;;;;24.33;29.21;99897.78;1755354;81;21025;-43
2022/05/08 10:45:46;;;;;;;13.95;5.15;;;;;;;24.55;29.00;99893.77;1755033;81;21049;-43
2022/05/08 10:48:21;;;;;;;12.43;5.20;;;;;;;24.79;29.11;99894.23;1755178;81;20986;-44
2022/05/08 10:50:55;;;;;;;11.20;4.92;;;;;;;24.98;28.50;99897.45;1754982;81;21046;-43
2022/05/08 10:53:32;;;;;;;11.93;4.78;;;;;;;25.07;27.37;99893.41;1755232;81;21108;-44
2022/05/08 10:56:10;;;;;;;7.58;4.85;;;;;;;24.98;26.90;99880.81;1755037;81;21041;-44
2022/05/08 10:58:41;;;;;;;11.78;5.20;;;;;;;24.63;26.86;99883.43;1755387;81;21516;-43
2022/05/08 11:01:09;;;;;;;9.68;4.60;;;;;;;24.28;27.68;99881.70;1751848;81;20962;-44
2022/05/08 11:03:37;;;;;;;10.55;5.10;;;;;;;24.08;28.10;99881.05;1755625;81;21054;-44
2022/05/08 11:06:05;;;;;;;6.95;4.87;;;;;;;24.00;28.52;99872.17;1754977;81;23123;-43
2022/05/08 11:08:35;;;;;;;10.58;4.47;;;;;;;24.07;27.98;99865.64;1755116;81;20963;-44
2022/05/08 11:11:09;;;;;;;12.25;5.28;;;;;;;24.27;28.03;99862.73;1755362;81;21094;-44
2022/05/08 11:13:44;;;;;;;7.72;4.55;;;;;;;24.50;27.22;99863.21;1755145;81;21018;-43
2022/05/08 11:16:13;;;;;;;8.15;4.58;;;;;;;24.64;27.07;99857.23;1747588;81;21008;-44
2022/05/08 11:18:41;;;;;;;8.90;5.05;;;;;;;24.75;26.92;99855.53;1741857;82;21190;-44
2022/05/08 11:21:09;;;;;;;9.73;5.33;;;;;;;24.78;27.21;99846.95;1741655;82;20967;-44
2022/05/08 11:23:44;;;;;;;10.00;4.67;;;;;;;24.92;27.13;99854.84;1742145;82;21502;-44
2022/05/08 11:26:12;;;;;;;7.35;4.62;;;;;;;24.99;26.59;99847.67;1741954;82;21521;-44
2022/05/08 11:28:55;;;;;;;9.30;4.53;;;;;;;24.99;26.05;99847.67;1741975;82;21023;-44
2022/05/08 11:31:21;;;;;;;8.88;4.90;;;;;;;25.01;26.25;99840.47;1741682;82;23161;-44
2022/05/08 11:36:35;;;;;;;9.28;4.45;;;;;;;25.12;26.08;99827.64;1742004;82;21536;-44
2022/05/08 11:39:12;;;;;;;6.85;4.83;;;;;;;25.26;26.15;99841.04;1741402;82;21599;-44
2022/05/08 11:41:46;;;;;;;9.73;4.42;;;;;;;25.30;25.97;99836.14;1741747;82;21090;-44
2022/05/08 11:44:21;;;;;;;7.40;4.80;;;;;;;25.28;25.45;99828.86;1741644;82;21069;-43
2022/05/08 11:46:56;;;;;;;9.28;4.83;;;;;;;25.46;25.85;99830.41;1741897;82;21006;-44
2022/05/08 11:49:31;;;;;;;8.05;4.40;;;;;;;25.69;25.32;99828.49;1741853;82;21004;-44
2022/05/08 11:52:06;;;;;;;7.53;4.40;;;;;;;25.88;25.43;99826.02;1741696;82;20951;-44
2022/05/08 11:54:38;;;;;;;8.68;4.60;;;;;;;25.97;24.67;99824.69;1741709;82;21031;-44
2022/05/08 11:57:22;;;;;;;7.25;4.45;;;;;;;25.93;24.47;99822.66;1742086;82;21149;-44
2022/05/08 11:59:51;;;;;;;6.00;3.90;;;;;;;25.71;25.14;99817.08;1741672;82;22204;-44
2022/05/08 12:02:19;;;;;;;12.58;4.45;;;;;;;25.74;25.25;99816.81;1742205;82;21004;-44